ルサカ の空港の天気 - METARとTAF

ケネスカウンダ国際空港 ( FLKK / LUN ) - ザンビア ルサカ
飛行場実況気象(Metar)
観測時間05/26 03:00 CAT (05/26 01:00 UTC)
風向・風速不定 1m/s
視程10km以上
天気現象
なし
気温10℃
湿度87%
気圧1023hPa
METARFLKK 260100Z VRB02KT CAVOK 10/08 Q1023
過去の天気等 Google飛行場航空写真 Wunderground天気予報

過去48時間のMETAR

飛行場予報(TAF)
発表時間: 5/25 12:00 CAT (5/25 10:00 UTC)
予報対象時間: 25日14時 CAT ~ 26日20時 CAT
風向・風速南南東 3m/s
視程10km以上
なし
25日18時 CAT ~ 25日20時 CAT に徐々に
26日9時 CAT ~ 26日11時 CAT に徐々に
風向・風速東南東 3m/s
26日17時 CAT ~ 26日19時 CAT に徐々に
風向・風速不定 2m/s
FLKK 251000Z 2512/2618 15005KT CAVOK
BECMG 2516/2518 VRBKT
BECMG 2607/2609 12005KT
BECMG 2615/2617 VRB03KT